createdAt,value
2018-05-11T00:00:40.484Z,1010.50
2018-05-11T00:01:46.004Z,1010.47
2018-05-11T00:02:51.508Z,1010.47
2018-05-11T00:03:57.061Z,1010.42
2018-05-11T00:05:02.529Z,1010.43
2018-05-11T00:06:08.061Z,1010.44
2018-05-11T00:07:13.568Z,1010.42
2018-05-11T00:08:19.080Z,1010.44
2018-05-11T00:09:24.584Z,1010.43
2018-05-11T00:10:30.095Z,1010.44
2018-05-11T00:11:35.616Z,1010.45
2018-05-11T00:12:41.123Z,1010.48
2018-05-11T00:13:46.639Z,1010.49
2018-05-11T00:14:52.153Z,1010.50
2018-05-11T00:15:57.664Z,1010.49
2018-05-11T00:17:03.177Z,1010.46
2018-05-11T00:18:08.686Z,1010.47
2018-05-11T00:19:14.199Z,1010.49
2018-05-11T00:20:19.715Z,1010.42
2018-05-11T00:21:25.227Z,1010.44
2018-05-11T00:22:30.741Z,1010.41
2018-05-11T00:23:36.257Z,1010.44
2018-05-11T00:24:41.767Z,1010.43
2018-05-11T00:25:47.282Z,1010.44
2018-05-11T00:26:52.798Z,1010.47
2018-05-11T00:27:58.310Z,1010.45
2018-05-11T00:29:03.822Z,1010.47
2018-05-11T00:30:09.333Z,1010.49
2018-05-11T00:31:14.854Z,1010.50
2018-05-11T00:32:20.367Z,1010.52
2018-05-11T00:33:25.973Z,1010.51
2018-05-11T00:34:31.397Z,1010.50
2018-05-11T00:35:36.908Z,1010.50
2018-05-11T00:36:42.424Z,1010.48
2018-05-11T00:37:47.932Z,1010.49
2018-05-11T00:38:53.441Z,1010.50
2018-05-11T00:39:58.962Z,1010.49
2018-05-11T00:41:04.464Z,1010.49
2018-05-11T00:42:09.989Z,1010.49
2018-05-11T00:43:15.499Z,1010.52
2018-05-11T00:44:21.010Z,1010.51
2018-05-11T00:45:26.523Z,1010.49
2018-05-11T00:46:32.035Z,1010.47
2018-05-11T00:47:37.546Z,1010.52
2018-05-11T00:48:43.071Z,1010.47
2018-05-11T00:49:48.574Z,1010.50
2018-05-11T00:50:54.091Z,1010.54
2018-05-11T00:51:59.603Z,1010.53
2018-05-11T00:53:05.119Z,1010.52
2018-05-11T00:54:10.627Z,1010.49
2018-05-11T00:55:16.141Z,1010.51
2018-05-11T00:56:21.665Z,1010.53
2018-05-11T00:57:27.170Z,1010.51
2018-05-11T00:58:32.687Z,1010.52
2018-05-11T00:59:38.196Z,1010.51
2018-05-11T01:00:43.715Z,1010.52
2018-05-11T01:01:49.222Z,1010.48
2018-05-11T01:02:54.734Z,1010.52
2018-05-11T01:04:00.251Z,1010.49
2018-05-11T01:05:05.768Z,1010.54
2018-05-11T01:06:11.329Z,1010.55
2018-05-11T01:07:16.863Z,1010.53
2018-05-11T01:08:22.305Z,1010.56
2018-05-11T01:09:27.819Z,1010.51
2018-05-11T01:10:33.327Z,1010.57
2018-05-11T01:11:38.848Z,1010.60
2018-05-11T01:12:44.356Z,1010.60
2018-05-11T01:13:49.866Z,1010.56
2018-05-11T01:14:55.396Z,1010.63
2018-05-11T01:16:00.900Z,1010.62
2018-05-11T01:17:06.407Z,1010.60
2018-05-11T01:18:11.924Z,1010.59
2018-05-11T01:19:17.436Z,1010.59
2018-05-11T01:20:22.947Z,1010.61
2018-05-11T01:21:28.464Z,1010.61
2018-05-11T01:22:33.978Z,1010.61
2018-05-11T01:23:39.485Z,1010.61
2018-05-11T01:24:45.003Z,1010.60
2018-05-11T01:25:50.511Z,1010.59
2018-05-11T01:26:56.028Z,1010.57
2018-05-11T01:28:01.538Z,1010.58
2018-05-11T01:29:07.054Z,1010.57
2018-05-11T01:30:12.568Z,1010.56
2018-05-11T01:31:18.078Z,1010.58
2018-05-11T01:32:23.592Z,1010.59
2018-05-11T01:33:29.107Z,1010.57
2018-05-11T01:34:34.616Z,1010.59
2018-05-11T01:35:40.132Z,1010.60
2018-05-11T01:36:45.648Z,1010.59
2018-05-11T01:37:51.154Z,1010.60
2018-05-11T01:38:56.682Z,1010.57
2018-05-11T01:40:02.184Z,1010.53
2018-05-11T01:41:07.700Z,1010.55
2018-05-11T01:42:13.223Z,1010.54
2018-05-11T01:43:18.725Z,1010.50
2018-05-11T01:44:24.242Z,1010.51
2018-05-11T01:45:29.759Z,1010.51
2018-05-11T01:46:35.265Z,1010.56
2018-05-11T01:47:40.777Z,1010.52
2018-05-11T01:48:46.312Z,1010.51
2018-05-11T01:49:51.807Z,1010.51
2018-05-11T01:50:57.315Z,1010.54
2018-05-11T01:52:02.833Z,1010.51
2018-05-11T01:53:08.345Z,1010.49
2018-05-11T01:54:13.857Z,1010.50
2018-05-11T01:55:19.368Z,1010.51
2018-05-11T01:56:24.879Z,1010.48
2018-05-11T01:57:30.396Z,1010.53
2018-05-11T01:58:35.905Z,1010.53
2018-05-11T01:59:41.417Z,1010.56
2018-05-11T02:00:46.938Z,1010.55
2018-05-11T02:01:52.441Z,1010.53
2018-05-11T02:02:57.953Z,1010.53
2018-05-11T02:04:03.477Z,1010.54
2018-05-11T02:05:08.981Z,1010.54
2018-05-11T02:06:14.499Z,1010.52
2018-05-11T02:07:20.008Z,1010.56
2018-05-11T02:08:25.518Z,1010.54
2018-05-11T02:09:31.035Z,1010.53
2018-05-11T02:10:36.544Z,1010.52
2018-05-11T02:11:42.058Z,1010.56
2018-05-11T02:12:47.602Z,1010.59
2018-05-11T02:13:53.085Z,1010.59
2018-05-11T02:14:58.595Z,1010.61
2018-05-11T02:16:04.111Z,1010.61
2018-05-11T02:17:09.621Z,1010.59
2018-05-11T02:18:15.136Z,1010.59
2018-05-11T02:19:20.641Z,1010.60
2018-05-11T02:20:26.160Z,1010.57
2018-05-11T02:21:31.671Z,1010.54
2018-05-11T02:22:37.194Z,1010.58
2018-05-11T02:23:42.695Z,1010.56
2018-05-11T02:24:48.207Z,1010.56
2018-05-11T02:25:53.729Z,1010.60
2018-05-11T02:26:59.229Z,1010.60
2018-05-11T02:28:04.743Z,1010.55
2018-05-11T02:29:10.261Z,1010.59
2018-05-11T02:30:15.768Z,1010.59
2018-05-11T02:31:21.280Z,1010.55
2018-05-11T02:32:26.794Z,1010.55
2018-05-11T02:33:32.303Z,1010.56
2018-05-11T02:34:37.827Z,1010.53
2018-05-11T02:35:43.330Z,1010.54
2018-05-11T02:36:48.926Z,1010.57
2018-05-11T02:37:54.364Z,1010.55
2018-05-11T02:38:59.868Z,1010.55
2018-05-11T02:40:05.391Z,1010.54
2018-05-11T02:41:10.892Z,1010.50
2018-05-11T02:42:16.404Z,1010.51
2018-05-11T02:43:21.920Z,1010.50
2018-05-11T02:44:27.433Z,1010.49
2018-05-11T02:45:32.944Z,1010.51
2018-05-11T02:46:38.453Z,1010.48
2018-05-11T02:47:43.966Z,1010.51
2018-05-11T02:48:49.478Z,1010.53
2018-05-11T02:49:55.003Z,1010.55
2018-05-11T02:51:00.505Z,1010.56
2018-05-11T02:52:06.017Z,1010.54
2018-05-11T02:53:11.527Z,1010.57
2018-05-11T02:54:17.037Z,1010.58
2018-05-11T02:55:22.556Z,1010.55
2018-05-11T02:56:28.072Z,1010.57
2018-05-11T02:57:33.577Z,1010.55
2018-05-11T02:58:39.088Z,1010.55
2018-05-11T02:59:44.598Z,1010.52
2018-05-11T03:00:50.116Z,1010.51
2018-05-11T03:01:55.623Z,1010.50
2018-05-11T03:03:01.141Z,1010.51
2018-05-11T03:04:06.647Z,1010.50
2018-05-11T03:05:12.170Z,1010.51
2018-05-11T03:06:17.674Z,1010.52
2018-05-11T03:07:23.191Z,1010.56
2018-05-11T03:08:28.700Z,1010.60
2018-05-11T03:09:34.207Z,1010.59
2018-05-11T03:10:39.730Z,1010.62
2018-05-11T03:11:45.241Z,1010.61
2018-05-11T03:12:50.752Z,1010.61
2018-05-11T03:13:56.261Z,1010.66
2018-05-11T03:15:01.769Z,1010.68
2018-05-11T03:16:07.295Z,1010.63
2018-05-11T03:17:12.805Z,1010.64
2018-05-11T03:18:18.402Z,1010.61
2018-05-11T03:19:23.826Z,1010.65
2018-05-11T03:20:29.328Z,1010.63
2018-05-11T03:21:34.847Z,1010.66
2018-05-11T03:22:40.359Z,1010.69
2018-05-11T03:23:45.863Z,1010.69
2018-05-11T03:24:51.378Z,1010.70
2018-05-11T03:25:56.887Z,1010.69
2018-05-11T03:27:02.400Z,1010.71
2018-05-11T03:28:07.910Z,1010.69
2018-05-11T03:29:13.426Z,1010.69
2018-05-11T03:30:18.939Z,1010.70
2018-05-11T03:31:24.448Z,1010.71
2018-05-11T03:32:29.965Z,1010.71
2018-05-11T03:33:35.489Z,1010.71
2018-05-11T03:34:40.984Z,1010.71
2018-05-11T03:35:46.503Z,1010.72
2018-05-11T03:36:52.018Z,1010.71
2018-05-11T03:37:57.523Z,1010.75
2018-05-11T03:39:03.028Z,1010.71
2018-05-11T03:40:08.550Z,1010.72
2018-05-11T03:41:14.055Z,1010.70
2018-05-11T03:42:19.572Z,1010.78
2018-05-11T03:43:25.084Z,1010.79
2018-05-11T03:44:30.599Z,1010.81
2018-05-11T03:45:36.102Z,1010.84
2018-05-11T03:46:41.613Z,1010.86
2018-05-11T03:47:47.127Z,1010.85
2018-05-11T03:48:52.641Z,1010.85
2018-05-11T03:49:58.151Z,1010.87
2018-05-11T03:51:03.802Z,1010.87
2018-05-11T03:52:09.184Z,1010.89
2018-05-11T03:53:14.754Z,1010.89
2018-05-11T03:54:20.199Z,1010.91
2018-05-11T03:55:25.713Z,1010.95
2018-05-11T03:56:31.266Z,1010.93
2018-05-11T03:57:36.745Z,1010.97
2018-05-11T03:58:42.244Z,1010.92
2018-05-11T03:59:47.764Z,1010.96
2018-05-11T04:00:53.268Z,1010.94
2018-05-11T04:01:58.787Z,1010.96
2018-05-11T04:03:04.298Z,1010.90
2018-05-11T04:04:09.809Z,1010.89
2018-05-11T04:05:15.320Z,1010.92
2018-05-11T04:06:20.832Z,1010.93
2018-05-11T04:07:26.352Z,1010.91
2018-05-11T04:08:31.900Z,1010.97
2018-05-11T04:09:37.368Z,1010.98
2018-05-11T04:10:42.888Z,1011.01
2018-05-11T04:11:48.391Z,1010.99
2018-05-11T04:12:53.907Z,1011.01
2018-05-11T04:13:59.414Z,1011.02
2018-05-11T04:15:04.927Z,1011.02
2018-05-11T04:16:10.445Z,1011.06
2018-05-11T04:17:15.951Z,1011.05
2018-05-11T04:18:21.465Z,1011.04
2018-05-11T04:19:26.974Z,1011.02
2018-05-11T04:20:32.486Z,1011.04
2018-05-11T04:21:38.010Z,1011.05
2018-05-11T04:22:43.517Z,1011.01
2018-05-11T04:23:49.111Z,1011.06
2018-05-11T04:24:54.542Z,1011.06
2018-05-11T04:26:00.051Z,1011.07
2018-05-11T04:27:05.567Z,1011.08
2018-05-11T04:28:11.086Z,1011.12
2018-05-11T04:29:16.704Z,1011.10
2018-05-11T04:30:22.097Z,1011.11
2018-05-11T04:31:27.670Z,1011.09
2018-05-11T04:32:33.122Z,1011.10
2018-05-11T04:33:38.639Z,1011.07
2018-05-11T04:34:44.150Z,1011.06
2018-05-11T04:35:49.668Z,1011.03
2018-05-11T04:36:55.173Z,1011.06
2018-05-11T04:38:00.688Z,1011.04
2018-05-11T04:39:06.197Z,1011.05
2018-05-11T04:40:11.707Z,1011.08
2018-05-11T04:41:17.220Z,1011.10
2018-05-11T04:42:22.732Z,1011.07
2018-05-11T04:43:28.246Z,1011.10
2018-05-11T04:44:33.757Z,1011.10
2018-05-11T04:45:39.271Z,1011.13
2018-05-11T04:46:44.788Z,1011.15
2018-05-11T04:47:50.299Z,1011.13
2018-05-11T04:48:55.805Z,1011.16
2018-05-11T04:50:01.321Z,1011.14
2018-05-11T04:51:06.848Z,1011.19
2018-05-11T04:52:12.344Z,1011.16
2018-05-11T04:53:17.857Z,1011.18
2018-05-11T04:54:23.369Z,1011.20
2018-05-11T04:55:28.882Z,1011.21
2018-05-11T04:56:34.395Z,1011.23
2018-05-11T04:57:39.905Z,1011.23
2018-05-11T04:58:45.426Z,1011.27
2018-05-11T04:59:50.934Z,1011.25
2018-05-11T05:00:56.449Z,1011.28
2018-05-11T05:02:02.101Z,1011.25
2018-05-11T05:03:07.473Z,1011.28
2018-05-11T05:04:12.987Z,1011.25
2018-05-11T05:05:18.502Z,1011.28
2018-05-11T05:06:24.018Z,1011.26
2018-05-11T05:07:29.537Z,1011.23
2018-05-11T05:08:35.035Z,1011.25
2018-05-11T05:09:40.549Z,1011.24
2018-05-11T05:10:46.058Z,1011.22
2018-05-11T05:11:51.583Z,1011.21
2018-05-11T05:12:57.091Z,1011.19
2018-05-11T05:14:02.608Z,1011.20
2018-05-11T05:15:08.110Z,1011.19
2018-05-11T05:16:13.623Z,1011.20
2018-05-11T05:17:19.138Z,1011.20
2018-05-11T05:18:24.648Z,1011.27
2018-05-11T05:19:30.170Z,1011.27
2018-05-11T05:20:35.672Z,1011.28
2018-05-11T05:21:41.190Z,1011.29
2018-05-11T05:22:46.706Z,1011.25
2018-05-11T05:23:52.214Z,1011.27
2018-05-11T05:24:57.731Z,1011.29
2018-05-11T05:26:03.240Z,1011.26
2018-05-11T05:27:08.769Z,1011.28
2018-05-11T05:28:14.276Z,1011.29
2018-05-11T05:29:19.779Z,1011.27
2018-05-11T05:30:25.292Z,1011.29
2018-05-11T05:31:30.808Z,1011.30
2018-05-11T05:32:36.325Z,1011.31
2018-05-11T05:33:41.837Z,1011.33
2018-05-11T05:34:47.357Z,1011.33
2018-05-11T05:35:52.861Z,1011.30
2018-05-11T05:36:58.446Z,1011.34
2018-05-11T05:38:03.886Z,1011.29
2018-05-11T05:39:09.544Z,1011.33
2018-05-11T05:40:14.909Z,1011.38
2018-05-11T05:41:20.424Z,1011.34
2018-05-11T05:42:25.936Z,1011.37
2018-05-11T05:43:31.458Z,1011.37
2018-05-11T05:44:36.959Z,1011.38
2018-05-11T05:45:42.480Z,1011.37
2018-05-11T05:46:47.992Z,1011.37
2018-05-11T05:47:53.502Z,1011.36
2018-05-11T05:48:59.014Z,1011.30
2018-05-11T05:50:04.527Z,1011.32
2018-05-11T05:51:10.044Z,1011.35
2018-05-11T05:52:15.565Z,1011.35
2018-05-11T05:53:21.068Z,1011.33
2018-05-11T05:54:26.578Z,1011.33
2018-05-11T05:55:32.090Z,1011.34
2018-05-11T05:56:37.614Z,1011.28
2018-05-11T05:57:43.124Z,1011.24
2018-05-11T05:58:48.653Z,1011.25
2018-05-11T05:59:54.260Z,1011.24
2018-05-11T06:00:59.662Z,1011.27
2018-05-11T06:02:05.171Z,1011.29
2018-05-11T06:03:10.687Z,1011.31
2018-05-11T06:04:16.203Z,1011.29
2018-05-11T06:05:21.719Z,1011.31
2018-05-11T06:06:27.228Z,1011.28
2018-05-11T06:07:32.741Z,1011.30
2018-05-11T06:08:38.274Z,1011.28
2018-05-11T06:09:43.770Z,1011.27
2018-05-11T06:10:49.341Z,1011.21
2018-05-11T06:11:54.794Z,1011.27
2018-05-11T06:13:00.305Z,1011.29
2018-05-11T06:14:05.825Z,1011.28
2018-05-11T06:15:11.336Z,1011.25
2018-05-11T06:16:16.850Z,1011.27
2018-05-11T06:17:22.362Z,1011.26
2018-05-11T06:18:27.875Z,1011.25
2018-05-11T06:19:33.387Z,1011.31
2018-05-11T06:20:38.929Z,1011.31
2018-05-11T06:21:44.435Z,1011.32
2018-05-11T06:22:49.931Z,1011.33
2018-05-11T06:23:55.443Z,1011.27
2018-05-11T06:25:00.963Z,1011.30
2018-05-11T06:26:06.467Z,1011.29
2018-05-11T06:27:11.987Z,1011.30
2018-05-11T06:28:17.497Z,1011.30
2018-05-11T06:29:23.008Z,1011.34
2018-05-11T06:30:28.521Z,1011.35
2018-05-11T06:31:34.038Z,1011.33
2018-05-11T06:32:39.552Z,1011.37
2018-05-11T06:33:45.061Z,1011.39
2018-05-11T06:34:50.578Z,1011.38
2018-05-11T06:35:56.095Z,1011.38
2018-05-11T06:37:01.606Z,1011.37
2018-05-11T06:38:07.119Z,1011.31
2018-05-11T06:39:12.631Z,1011.31
2018-05-11T06:40:18.149Z,1011.33
2018-05-11T06:41:23.674Z,1011.30
2018-05-11T06:42:29.178Z,1011.36
2018-05-11T06:43:34.688Z,1011.32
2018-05-11T06:44:40.281Z,1011.30
2018-05-11T06:45:45.720Z,1011.30
2018-05-11T06:46:51.231Z,1011.29
2018-05-11T06:47:56.743Z,1011.28
2018-05-11T06:49:02.261Z,1011.26
2018-05-11T06:50:07.770Z,1011.22
2018-05-11T06:51:13.295Z,1011.17
2018-05-11T06:52:18.801Z,1011.20
2018-05-11T06:53:24.329Z,1011.17
2018-05-11T06:54:29.826Z,1011.15
2018-05-11T06:55:35.348Z,1011.15
2018-05-11T06:56:40.863Z,1011.16
2018-05-11T06:57:46.365Z,1011.21
2018-05-11T06:58:51.880Z,1011.22
2018-05-11T06:59:57.405Z,1011.17
2018-05-11T07:01:02.916Z,1011.16
2018-05-11T07:02:08.431Z,1011.16
2018-05-11T07:03:13.941Z,1011.17
2018-05-11T07:04:19.453Z,1011.14
2018-05-11T07:05:24.965Z,1011.18
2018-05-11T07:06:30.489Z,1011.15
2018-05-11T07:07:36.073Z,1011.16
2018-05-11T07:08:41.519Z,1011.11
2018-05-11T07:09:47.025Z,1011.10
2018-05-11T07:10:52.537Z,1011.12
2018-05-11T07:11:58.056Z,1011.08
2018-05-11T07:13:03.571Z,1011.10
2018-05-11T07:14:09.083Z,1011.08
2018-05-11T07:15:14.592Z,1011.05
2018-05-11T07:16:20.117Z,1011.02
2018-05-11T07:17:25.626Z,1011.06
2018-05-11T07:18:31.144Z,1011.03
2018-05-11T07:19:36.669Z,1011.02
2018-05-11T07:20:42.170Z,1011.00
2018-05-11T07:21:47.686Z,1011.00
2018-05-11T07:22:53.208Z,1010.97
2018-05-11T07:23:58.707Z,1010.93
2018-05-11T07:25:04.226Z,1010.93
2018-05-11T07:26:09.745Z,1010.91
2018-05-11T07:27:15.251Z,1010.95
2018-05-11T07:28:20.767Z,1010.97
2018-05-11T07:29:26.291Z,1010.95
2018-05-11T07:30:31.797Z,1010.96
2018-05-11T07:31:37.310Z,1010.95
2018-05-11T07:32:42.833Z,1010.98
2018-05-11T07:33:48.335Z,1010.96
2018-05-11T07:34:53.864Z,1010.97
2018-05-11T07:35:59.365Z,1010.95
2018-05-11T07:37:04.886Z,1010.89
2018-05-11T07:38:10.396Z,1010.93
2018-05-11T07:39:15.910Z,1010.94
2018-05-11T07:40:21.423Z,1010.94
2018-05-11T07:41:26.945Z,1010.92
2018-05-11T07:42:32.453Z,1010.92
2018-05-11T07:43:37.967Z,1010.94
2018-05-11T07:44:43.481Z,1010.89
2018-05-11T07:45:49.004Z,1010.93
2018-05-11T07:46:54.522Z,1010.92
2018-05-11T07:48:00.052Z,1010.96
2018-05-11T07:49:05.541Z,1010.96
2018-05-11T07:50:11.057Z,1010.96
2018-05-11T07:51:16.582Z,1010.96
2018-05-11T07:52:22.086Z,1010.97
2018-05-11T07:53:27.609Z,1010.98
2018-05-11T07:54:33.114Z,1011.00
2018-05-11T07:55:38.633Z,1011.00
2018-05-11T07:56:44.144Z,1010.99
2018-05-11T07:57:49.660Z,1011.03
2018-05-11T07:58:55.179Z,1010.99
2018-05-11T08:00:00.692Z,1010.97
2018-05-11T08:01:06.204Z,1010.95
2018-05-11T08:02:11.724Z,1010.96
2018-05-11T08:03:17.231Z,1010.93
2018-05-11T08:04:22.754Z,1010.97
2018-05-11T08:05:28.264Z,1010.95
2018-05-11T08:06:33.775Z,1010.94
2018-05-11T08:07:39.296Z,1011.00
2018-05-11T08:08:44.805Z,1011.01
2018-05-11T08:09:50.330Z,1010.96
2018-05-11T08:10:55.836Z,1010.93
2018-05-11T08:12:01.360Z,1010.90
2018-05-11T08:13:06.875Z,1010.89
2018-05-11T08:14:12.415Z,1010.87
2018-05-11T08:15:17.898Z,1010.87
2018-05-11T08:16:23.413Z,1010.88
2018-05-11T08:17:28.927Z,1010.89
2018-05-11T08:18:34.442Z,1010.89
2018-05-11T08:19:39.956Z,1010.89
2018-05-11T08:20:45.478Z,1010.87
2018-05-11T08:21:50.991Z,1010.88
2018-05-11T08:22:56.517Z,1010.90
2018-05-11T08:24:02.026Z,1010.82
2018-05-11T08:25:07.536Z,1010.80
2018-05-11T08:26:13.048Z,1010.80
2018-05-11T08:27:18.567Z,1010.84
2018-05-11T08:28:24.210Z,1010.83
2018-05-11T08:29:29.608Z,1010.84
2018-05-11T08:30:35.109Z,1010.79
2018-05-11T08:31:40.628Z,1010.80
2018-05-11T08:32:46.147Z,1010.78
2018-05-11T08:33:51.660Z,1010.75
2018-05-11T08:34:57.177Z,1010.75
2018-05-11T08:36:02.689Z,1010.74
2018-05-11T08:37:08.202Z,1010.73
2018-05-11T08:38:13.727Z,1010.78
2018-05-11T08:39:19.240Z,1010.75
2018-05-11T08:40:24.758Z,1010.75
2018-05-11T08:41:30.266Z,1010.75
2018-05-11T08:42:35.783Z,1010.71
2018-05-11T08:43:41.303Z,1010.70
2018-05-11T08:44:46.829Z,1010.69
2018-05-11T08:45:52.328Z,1010.68
2018-05-11T08:46:57.851Z,1010.68
2018-05-11T08:48:03.365Z,1010.65
2018-05-11T08:49:08.875Z,1010.66
2018-05-11T08:50:14.396Z,1010.66
2018-05-11T08:51:19.907Z,1010.68
2018-05-11T08:52:25.427Z,1010.67
2018-05-11T08:53:30.941Z,1010.65
2018-05-11T08:54:36.457Z,1010.67
2018-05-11T08:55:41.973Z,1010.66
2018-05-11T08:56:47.495Z,1010.58
2018-05-11T08:57:53.004Z,1010.60
2018-05-11T08:58:58.523Z,1010.59
2018-05-11T09:00:04.043Z,1010.56
2018-05-11T09:01:09.625Z,1010.59
2018-05-11T09:02:15.064Z,1010.55
2018-05-11T09:03:20.578Z,1010.55
2018-05-11T09:04:26.095Z,1010.55
2018-05-11T09:05:31.612Z,1010.51
2018-05-11T09:06:37.137Z,1010.52
2018-05-11T09:07:42.642Z,1010.51
2018-05-11T09:08:48.161Z,1010.50
2018-05-11T09:09:53.674Z,1010.46
2018-05-11T09:10:59.187Z,1010.49
2018-05-11T09:12:04.707Z,1010.48
2018-05-11T09:13:10.221Z,1010.50
2018-05-11T09:14:15.760Z,1010.51
2018-05-11T09:15:21.254Z,1010.50
2018-05-11T09:16:26.775Z,1010.48
2018-05-11T09:17:32.284Z,1010.45
2018-05-11T09:18:37.800Z,1010.42
2018-05-11T09:19:43.315Z,1010.40
2018-05-11T09:20:48.834Z,1010.37
2018-05-11T09:21:54.350Z,1010.39
2018-05-11T09:22:59.877Z,1010.38
2018-05-11T09:24:05.379Z,1010.41
2018-05-11T09:25:10.897Z,1010.41
2018-05-11T09:26:16.413Z,1010.43
2018-05-11T09:27:21.929Z,1010.36
2018-05-11T09:28:27.455Z,1010.37
2018-05-11T09:29:32.962Z,1010.34
2018-05-11T09:30:38.491Z,1010.34
2018-05-11T09:31:44.060Z,1010.31
2018-05-11T09:32:49.515Z,1010.36
2018-05-11T09:33:55.042Z,1010.36
2018-05-11T09:35:00.540Z,1010.33
2018-05-11T09:36:06.060Z,1010.27
2018-05-11T09:37:11.637Z,1010.28
2018-05-11T09:38:17.091Z,1010.29
2018-05-11T09:39:22.628Z,1010.26
2018-05-11T09:40:28.122Z,1010.26
2018-05-11T09:41:33.635Z,1010.25
2018-05-11T09:42:39.158Z,1010.24
2018-05-11T09:43:44.670Z,1010.25
2018-05-11T09:44:50.195Z,1010.20
2018-05-11T09:45:55.706Z,1010.19
2018-05-11T09:47:01.217Z,1010.16
2018-05-11T09:48:06.735Z,1010.17
2018-05-11T09:49:12.283Z,1010.18
2018-05-11T09:50:17.773Z,1010.15
2018-05-11T09:51:23.305Z,1010.13
2018-05-11T09:52:28.876Z,1010.09
2018-05-11T09:53:34.321Z,1010.11
2018-05-11T09:54:39.855Z,1010.07
2018-05-11T09:55:45.348Z,1010.07
2018-05-11T09:56:50.865Z,1010.10
2018-05-11T09:57:56.378Z,1010.08
2018-05-11T09:59:01.908Z,1010.08
2018-05-11T10:00:07.417Z,1010.09
2018-05-11T10:01:12.929Z,1010.07
2018-05-11T10:02:18.452Z,1010.03
2018-05-11T10:03:23.963Z,1010.08
2018-05-11T10:04:29.521Z,1010.09
2018-05-11T10:05:34.993Z,1010.08
2018-05-11T10:06:40.519Z,1010.07
2018-05-11T10:07:46.074Z,1010.08
2018-05-11T10:08:51.560Z,1010.11
2018-05-11T10:09:57.072Z,1010.09
2018-05-11T10:11:02.577Z,1010.10
2018-05-11T10:12:08.119Z,1010.10
2018-05-11T10:13:13.612Z,1010.09
2018-05-11T10:14:19.188Z,1010.10
2018-05-11T10:15:24.645Z,1010.11
2018-05-11T10:16:30.169Z,1010.09
2018-05-11T10:17:35.680Z,1010.02
2018-05-11T10:18:41.206Z,1010.01
2018-05-11T10:19:46.721Z,1010.05
2018-05-11T10:20:52.279Z,1010.05
2018-05-11T10:21:57.756Z,1010.04
2018-05-11T10:23:03.266Z,1010.05
2018-05-11T10:24:08.874Z,1010.04
2018-05-11T10:25:14.324Z,1010.05
2018-05-11T10:26:19.822Z,1010.06
2018-05-11T10:27:25.343Z,1010.04
2018-05-11T10:28:30.847Z,1010.00
2018-05-11T10:29:36.367Z,1010.01
2018-05-11T10:30:41.883Z,1010.01
2018-05-11T10:31:47.401Z,1010.01
2018-05-11T10:32:52.925Z,1009.99
2018-05-11T10:33:58.432Z,1010.02
2018-05-11T10:35:03.968Z,1009.98
2018-05-11T10:36:09.477Z,1009.98
2018-05-11T10:37:14.984Z,1009.99
2018-05-11T10:38:20.507Z,1009.94
2018-05-11T10:39:26.020Z,1009.88
2018-05-11T10:40:31.557Z,1009.89
2018-05-11T10:41:37.055Z,1009.87
2018-05-11T10:42:42.608Z,1009.94
2018-05-11T10:43:48.089Z,1009.88
2018-05-11T10:44:53.612Z,1009.90
2018-05-11T10:45:59.125Z,1009.90
2018-05-11T10:47:04.647Z,1009.89
2018-05-11T10:48:10.169Z,1009.88
2018-05-11T10:49:15.677Z,1009.88
2018-05-11T10:50:21.192Z,1009.86
2018-05-11T10:51:26.717Z,1009.86
2018-05-11T10:52:32.233Z,1009.84
2018-05-11T10:53:37.755Z,1009.84
2018-05-11T10:54:43.263Z,1009.81
2018-05-11T10:55:48.797Z,1009.86
2018-05-11T10:56:54.308Z,1009.83
2018-05-11T10:57:59.825Z,1009.86
2018-05-11T10:59:05.336Z,1009.82
2018-05-11T11:00:10.849Z,1009.82
2018-05-11T11:01:16.372Z,1009.79
2018-05-11T11:02:21.948Z,1009.74
2018-05-11T11:03:27.405Z,1009.74
2018-05-11T11:04:32.924Z,1009.75
2018-05-11T11:05:38.437Z,1009.75
2018-05-11T11:06:43.963Z,1009.78
2018-05-11T11:07:49.551Z,1009.74
2018-05-11T11:08:54.993Z,1009.72
2018-05-11T11:10:00.534Z,1009.72
2018-05-11T11:11:06.036Z,1009.67
2018-05-11T11:12:11.562Z,1009.71
2018-05-11T11:13:17.066Z,1009.69
2018-05-11T11:14:22.602Z,1009.69
2018-05-11T11:15:28.101Z,1009.67
2018-05-11T11:16:33.617Z,1009.62
2018-05-11T11:17:39.135Z,1009.62
2018-05-11T11:18:44.653Z,1009.58
2018-05-11T11:19:50.270Z,1009.53
2018-05-11T11:20:55.695Z,1009.55
2018-05-11T11:22:01.219Z,1009.52
2018-05-11T11:23:06.727Z,1009.52
2018-05-11T11:24:12.247Z,1009.51
2018-05-11T11:25:17.771Z,1009.55
2018-05-11T11:26:23.289Z,1009.55
2018-05-11T11:27:28.798Z,1009.53
2018-05-11T11:28:34.318Z,1009.53
2018-05-11T11:29:39.836Z,1009.52
2018-05-11T11:30:45.361Z,1009.51
2018-05-11T11:31:50.885Z,1009.53
2018-05-11T11:32:56.428Z,1009.48
2018-05-11T11:34:01.911Z,1009.46
2018-05-11T11:35:07.515Z,1009.44
2018-05-11T11:36:12.981Z,1009.37
2018-05-11T11:37:18.503Z,1009.40
2018-05-11T11:38:24.001Z,1009.37
2018-05-11T11:39:29.511Z,1009.34
2018-05-11T11:40:35.021Z,1009.28
2018-05-11T11:41:40.533Z,1009.28
2018-05-11T11:42:46.054Z,1009.29
2018-05-11T11:43:51.574Z,1009.27
2018-05-11T11:44:57.091Z,1009.29
2018-05-11T11:46:02.605Z,1009.28
2018-05-11T11:47:08.127Z,1009.23
2018-05-11T11:48:13.649Z,1009.24
2018-05-11T11:49:19.176Z,1009.18
2018-05-11T11:50:24.688Z,1009.17
2018-05-11T11:51:30.210Z,1009.09
2018-05-11T11:52:35.719Z,1009.11
2018-05-11T11:53:41.240Z,1009.14
2018-05-11T11:54:46.755Z,1009.12
2018-05-11T11:55:52.280Z,1009.11
2018-05-11T11:56:57.793Z,1009.11
2018-05-11T11:58:03.313Z,1009.07
2018-05-11T11:59:08.832Z,1009.05
2018-05-11T12:00:14.454Z,1009.09
2018-05-11T12:01:19.867Z,1009.06
2018-05-11T12:02:25.387Z,1009.03
2018-05-11T12:03:30.914Z,1009.03
2018-05-11T12:04:36.558Z,1009.02
2018-05-11T12:05:41.943Z,1008.97
2018-05-11T12:06:47.467Z,1008.90
2018-05-11T12:07:53.005Z,1008.91
2018-05-11T12:08:58.587Z,1008.89
2018-05-11T12:10:04.028Z,1008.91
2018-05-11T12:11:09.551Z,1008.86
2018-05-11T12:12:15.059Z,1008.91
2018-05-11T12:13:20.573Z,1008.84
2018-05-11T12:14:26.103Z,1008.86
2018-05-11T12:15:31.613Z,1008.89
2018-05-11T12:16:37.135Z,1008.86
2018-05-11T12:17:42.656Z,1008.86
2018-05-11T12:18:48.173Z,1008.85
2018-05-11T12:19:53.695Z,1008.80
2018-05-11T12:20:59.222Z,1008.81
2018-05-11T12:22:04.741Z,1008.82
2018-05-11T12:23:10.251Z,1008.85
2018-05-11T12:24:15.772Z,1008.81
2018-05-11T12:25:21.286Z,1008.79
2018-05-11T12:26:26.838Z,1008.79
2018-05-11T12:27:32.343Z,1008.74
2018-05-11T12:28:37.845Z,1008.72
2018-05-11T12:29:43.365Z,1008.69
2018-05-11T12:30:48.881Z,1008.70
2018-05-11T12:31:54.411Z,1008.73
2018-05-11T12:32:59.951Z,1008.67
2018-05-11T12:34:05.451Z,1008.74
2018-05-11T12:35:10.969Z,1008.68
2018-05-11T12:36:16.481Z,1008.72
2018-05-11T12:37:22.004Z,1008.75
2018-05-11T12:38:27.518Z,1008.65
2018-05-11T12:39:33.055Z,1008.64
2018-05-11T12:40:38.562Z,1008.64
2018-05-11T12:41:44.086Z,1008.66
2018-05-11T12:42:49.595Z,1008.65
2018-05-11T12:43:55.118Z,1008.64
2018-05-11T12:45:00.646Z,1008.62
2018-05-11T12:46:06.161Z,1008.63
2018-05-11T12:47:11.698Z,1008.59
2018-05-11T12:48:17.203Z,1008.62
2018-05-11T12:49:22.713Z,1008.63
2018-05-11T12:50:28.230Z,1008.62
2018-05-11T12:51:33.750Z,1008.62
2018-05-11T12:52:39.271Z,1008.56
2018-05-11T12:53:44.789Z,1008.56
2018-05-11T12:54:50.308Z,1008.60
2018-05-11T12:55:55.826Z,1008.61
2018-05-11T12:57:01.348Z,1008.63
2018-05-11T12:58:06.872Z,1008.65
2018-05-11T12:59:12.392Z,1008.61
2018-05-11T13:00:17.959Z,1008.59
2018-05-11T13:01:23.433Z,1008.63
2018-05-11T13:02:28.945Z,1008.59
2018-05-11T13:03:34.467Z,1008.58
2018-05-11T13:04:39.982Z,1008.60
2018-05-11T13:05:45.517Z,1008.62
2018-05-11T13:06:51.021Z,1008.57
2018-05-11T13:07:56.538Z,1008.53
2018-05-11T13:09:02.080Z,1008.52
2018-05-11T13:10:07.578Z,1008.55
2018-05-11T13:11:13.096Z,1008.56
2018-05-11T13:12:18.618Z,1008.56